createdAt,value
2022-12-16T00:01:20.468Z,21.5
2022-12-16T00:06:02.842Z,19.0
2022-12-16T00:11:33.403Z,21.0
2022-12-16T00:16:15.995Z,18.9
2022-12-16T00:21:22.345Z,18.5
2022-12-16T00:26:48.689Z,21.9
2022-12-16T00:31:35.085Z,18.7
2022-12-16T00:37:05.485Z,19.9
2022-12-16T00:42:47.916Z,22.3
2022-12-16T00:46:54.167Z,18.9
2022-12-16T00:52:00.597Z,21.1
2022-12-16T00:57:07.158Z,19.7
2022-12-16T01:02:13.890Z,17.3
2022-12-16T01:07:20.050Z,16.8
2022-12-16T01:12:40.499Z,15.4
2022-12-16T01:17:31.842Z,18.2
2022-12-16T01:22:39.209Z,18.7
2022-12-16T01:27:45.629Z,20.5
2022-12-16T01:32:52.015Z,12.4
2022-12-16T01:37:58.413Z,15.1
2022-12-16T01:43:04.795Z,17.4
2022-12-16T01:48:11.250Z,16.2
2022-12-16T01:53:37.772Z,15.2
2022-12-16T01:58:24.138Z,18.4
2022-12-16T02:03:31.059Z,14.6
2022-12-16T02:09:00.941Z,16.8
2022-12-16T02:13:43.286Z,20.4
2022-12-16T02:18:48.640Z,18.2
2022-12-16T02:23:56.038Z,15.9
2022-12-16T02:29:02.558Z,17.9
2022-12-16T02:34:08.908Z,18.4
2022-12-16T02:39:15.295Z,17.4
2022-12-16T02:44:21.761Z,21.3
2022-12-16T02:49:28.125Z,18.1
2022-12-16T02:54:34.522Z,17.0
2022-12-16T02:59:40.963Z,18.0
2022-12-16T03:04:47.315Z,17.8
2022-12-16T03:10:17.759Z,13.9
2022-12-16T03:15:00.203Z,14.0
2022-12-16T03:20:06.575Z,16.2
2022-12-16T03:25:16.968Z,15.3
2022-12-16T03:30:19.405Z,14.6
2022-12-16T03:35:25.750Z,15.1
2022-12-16T03:40:32.140Z,17.7
2022-12-16T03:45:38.613Z,13.2
2022-12-16T03:50:43.950Z,14.7
2022-12-16T03:56:11.575Z,12.1
2022-12-16T04:00:57.998Z,14.4
2022-12-16T04:06:04.397Z,14.0
2022-12-16T04:11:10.786Z,11.8
2022-12-16T04:16:17.318Z,9.9
2022-12-16T04:21:23.555Z,12.4
2022-12-16T04:27:15.908Z,8.7
2022-12-16T04:31:36.427Z,10.3
2022-12-16T04:36:42.714Z,8.8
2022-12-16T04:41:49.221Z,11.9
2022-12-16T04:46:55.692Z,12.8
2022-12-16T04:52:02.157Z,14.6
2022-12-16T04:57:08.552Z,11.6
2022-12-16T05:02:15.133Z,11.9
2022-12-16T05:07:45.358Z,13.6
2022-12-16T05:12:27.650Z,15.4
2022-12-16T05:17:34.060Z,15.3
2022-12-16T05:22:39.408Z,12.6
2022-12-16T05:27:46.846Z,11.0
2022-12-16T05:32:53.326Z,11.8
2022-12-16T05:38:23.688Z,12.8
2022-12-16T05:43:05.985Z,10.3
2022-12-16T05:48:12.388Z,11.4
2022-12-16T05:53:18.742Z,12.5
2022-12-16T05:58:25.142Z,12.5
2022-12-16T06:03:33.368Z,15.7
2022-12-16T06:08:39.599Z,12.8
2022-12-16T06:13:45.991Z,14.7
2022-12-16T06:19:16.459Z,14.4
2022-12-16T06:23:58.756Z,15.7
2022-12-16T06:29:08.188Z,10.8
2022-12-16T06:34:14.585Z,13.2
2022-12-16T06:39:21.183Z,13.2
2022-12-16T06:44:26.614Z,14.3
2022-12-16T06:49:33.998Z,12.6
2022-12-16T06:54:40.431Z,18.6
2022-12-16T06:59:46.797Z,12.0
2022-12-16T07:04:53.203Z,16.1
2022-12-16T07:10:19.655Z,15.8
2022-12-16T07:15:05.953Z,14.7
2022-12-16T07:20:12.337Z,12.8
2022-12-16T07:25:18.721Z,14.7
2022-12-16T07:30:25.126Z,13.0
2022-12-16T07:35:31.496Z,12.3
2022-12-16T07:40:37.897Z,14.7
2022-12-16T07:45:45.454Z,12.3
2022-12-16T07:50:50.819Z,13.0
2022-12-16T07:55:57.185Z,13.4
2022-12-16T08:01:07.821Z,12.2
2022-12-16T08:06:09.965Z,12.1
2022-12-16T08:11:36.567Z,12.9
2022-12-16T08:17:20.215Z,22.9
2022-12-16T08:22:23.780Z,14.1
2022-12-16T08:27:30.165Z,13.9
2022-12-16T08:32:36.649Z,14.7
2022-12-16T08:37:43.044Z,12.9
2022-12-16T08:42:49.416Z,14.7
2022-12-16T08:47:55.979Z,16.6
2022-12-16T08:53:01.504Z,14.8
2022-12-16T08:58:08.954Z,16.1
2022-12-16T09:03:15.704Z,13.3
2022-12-16T09:08:21.732Z,12.9
2022-12-16T09:13:48.321Z,14.7
2022-12-16T09:18:34.624Z,14.2
2022-12-16T09:24:02.089Z,14.8
2022-12-16T09:28:48.496Z,14.9
2022-12-16T09:33:54.918Z,13.8
2022-12-16T09:41:21.513Z,15.1
2022-12-16T09:44:27.684Z,13.0
2022-12-16T09:49:14.666Z,15.3
2022-12-16T09:54:21.138Z,14.9
2022-12-16T09:59:55.591Z,15.2
2022-12-16T10:04:57.999Z,14.5
2022-12-16T10:10:00.567Z,13.3
2022-12-16T10:14:53.150Z,16.5
2022-12-16T10:20:19.691Z,18.2
2022-12-16T10:26:00.461Z,22.2
2022-12-16T10:31:03.928Z,16.4
2022-12-16T10:35:50.231Z,18.7
2022-12-16T10:40:46.549Z,17.8
2022-12-16T10:46:23.347Z,17.0
2022-12-16T10:51:54.125Z,19.8
2022-12-16T10:56:16.230Z,15.2
2022-12-16T11:01:22.751Z,18.3
2022-12-16T11:06:29.083Z,13.6
2022-12-16T11:11:35.667Z,15.4
2022-12-16T11:16:41.209Z,17.0
2022-12-16T11:21:48.499Z,20.6
2022-12-16T11:26:54.921Z,20.7
2022-12-16T11:32:21.347Z,17.5
2022-12-16T11:37:10.917Z,15.9
2022-12-16T11:42:14.307Z,18.8
2022-12-16T11:47:40.746Z,12.8
2022-12-16T11:52:42.495Z,14.6
2022-12-16T11:57:33.535Z,18.2
2022-12-16T12:04:12.027Z,26.3
2022-12-16T12:09:37.307Z,21.3
2022-12-16T12:14:24.683Z,17.7
2022-12-16T12:19:55.064Z,19.4
2022-12-16T12:24:37.662Z,23.2
2022-12-16T12:29:44.141Z,19.5
2022-12-16T12:34:50.531Z,18.2
2022-12-16T12:40:16.990Z,20.8
2022-12-16T12:45:31.515Z,22.0
2022-12-16T12:50:33.757Z,25.6
2022-12-16T12:55:16.130Z,20.9
2022-12-16T13:00:50.700Z,21.2
2022-12-16T13:05:29.043Z,20.4
2022-12-16T13:10:35.453Z,19.8
2022-12-16T13:15:41.925Z,17.4
2022-12-16T13:20:52.407Z,19.7
2022-12-16T13:28:19.089Z,36.2
2022-12-16T13:33:19.688Z,33.8
2022-12-16T13:38:46.159Z,26.9
2022-12-16T13:43:28.536Z,26.8
2022-12-16T13:54:56.728Z,26.7
2022-12-16T13:58:50.895Z,25.9
2022-12-16T14:03:57.188Z,17.1
2022-12-16T14:09:03.594Z,22.9
2022-12-16T14:19:22.388Z,21.8
2022-12-16T14:21:46.631Z,23.9
2022-12-16T14:24:33.776Z,25.1
2022-12-16T14:29:35.704Z,20.6
2022-12-16T14:36:08.548Z,28.5
2022-12-16T14:40:54.738Z,24.5
2022-12-16T14:46:01.909Z,22.2
2022-12-16T14:51:12.292Z,21.9
2022-12-16T14:56:13.644Z,21.4
2022-12-16T15:01:21.316Z,19.9
2022-12-16T15:06:27.594Z,21.5
2022-12-16T15:11:36.092Z,25.2
2022-12-16T15:16:42.571Z,18.2
2022-12-16T15:21:48.938Z,20.5
2022-12-16T15:26:59.264Z,18.1
2022-12-16T15:43:13.677Z,33.1
2022-12-16T15:48:40.054Z,22.5
2022-12-16T16:03:03.418Z,37.4
2022-12-16T16:09:16.660Z,21.4
2022-12-16T16:13:26.463Z,19.5
2022-12-16T16:29:47.972Z,24.8
2022-12-16T16:38:57.357Z,22.1
2022-12-16T16:40:03.642Z,20.6
2022-12-16T17:00:36.849Z,38.7
2022-12-16T17:06:52.802Z,29.1
2022-12-16T17:10:50.427Z,27.1
2022-12-16T17:15:46.067Z,20.4
2022-12-16T17:19:52.088Z,19.3
2022-12-16T17:24:58.522Z,22.6
2022-12-16T17:35:31.578Z,23.6
2022-12-16T17:40:41.973Z,20.4
2022-12-16T17:45:24.290Z,24.7
2022-12-16T17:50:30.665Z,27.6
2022-12-16T17:55:37.106Z,23.2
2022-12-16T18:00:43.465Z,30.8
2022-12-16T18:05:49.886Z,33.8
2022-12-16T18:12:28.502Z,28.2
2022-12-16T18:16:02.790Z,27.1
2022-12-16T18:21:09.094Z,24.4
2022-12-16T18:33:53.595Z,60.4
2022-12-16T18:50:13.273Z,47.5
2022-12-16T19:06:48.466Z,55.7
2022-12-16T19:11:11.713Z,32.4
2022-12-16T19:21:23.633Z,24.8
2022-12-16T19:22:17.783Z,28.2
2022-12-16T19:31:32.754Z,50.0
2022-12-16T19:36:39.808Z,27.6
2022-12-16T19:42:08.641Z,23.7
2022-12-16T19:46:51.618Z,19.9
2022-12-16T19:52:21.353Z,24.1
2022-12-16T19:57:03.758Z,20.0
2022-12-16T20:02:10.509Z,19.0
2022-12-16T20:07:40.689Z,24.3
2022-12-16T20:12:27.028Z,20.0
2022-12-16T20:17:29.464Z,19.7
2022-12-16T20:22:35.827Z,15.6
2022-12-16T20:27:42.414Z,20.9
2022-12-16T20:33:23.938Z,28.1
2022-12-16T20:38:31.510Z,22.0
2022-12-16T20:44:12.953Z,32.3
2022-12-16T20:50:04.503Z,21.4
2022-12-16T20:54:26.946Z,18.6
2022-12-16T20:59:23.335Z,21.8
2022-12-16T21:04:39.764Z,18.9
2022-12-16T21:09:46.174Z,18.8
2022-12-16T21:14:56.602Z,20.4
2022-12-16T21:19:58.932Z,18.7
2022-12-16T21:25:05.481Z,19.5
2022-12-16T21:30:11.835Z,21.3
2022-12-16T21:35:32.338Z,16.6
2022-12-16T21:40:44.861Z,17.1
2022-12-16T21:45:21.153Z,19.2
2022-12-16T21:50:37.570Z,21.6
2022-12-16T21:55:33.941Z,18.8
2022-12-16T22:01:14.412Z,21.3
2022-12-16T22:05:46.677Z,18.1
2022-12-16T22:13:13.269Z,34.9
2022-12-16T22:17:57.785Z,18.5
2022-12-16T22:23:06.980Z,20.6
2022-12-16T22:28:13.509Z,25.1
2022-12-16T22:33:20.007Z,26.1
2022-12-16T22:38:16.357Z,22.1
2022-12-16T22:43:32.769Z,21.5
2022-12-16T22:48:29.188Z,16.9
2022-12-16T22:53:45.964Z,20.5
2022-12-16T22:58:52.018Z,16.3
2022-12-16T23:04:42.598Z,28.6
2022-12-16T23:10:09.922Z,22.1
2022-12-16T23:15:16.310Z,17.8
2022-12-16T23:20:02.707Z,16.8
2022-12-16T23:25:29.105Z,16.9
2022-12-16T23:30:23.017Z,10.0
2022-12-16T23:35:25.455Z,16.6
2022-12-16T23:40:21.798Z,19.6
2022-12-16T23:45:38.287Z,18.4
2022-12-16T23:51:08.824Z,19.2
2022-12-16T23:55:51.129Z,16.1
